Time;durP1;ratioP1;P1;durP2;ratioP2;P2;SDS_P1;SDS_P2;PMS_P1;PMS_P2;Temp;Humidity;BMP_temperature;BMP_pressure;BME280_temperature;BME280_humidity;BME280_pressure;Samples;Min_cycle;Max_cycle;Signal;HPM_P1;HPM_P2
2021/01/20 00:01:09;;;;;;;2.67;1.30;;;;;;;;;;5031566;28;20048;-69
2021/01/20 00:03:34;;;;;;;3.33;1.23;;;;;;;;;;5030934;28;20024;-69
2021/01/20 00:05:59;;;;;;;3.42;1.40;;;;;;;;;;5031493;28;20029;-69
2021/01/20 00:08:25;;;;;;;2.85;1.40;;;;;;;;;;5040470;28;20094;-69
2021/01/20 00:10:50;;;;;;;3.15;1.30;;;;;;;;;;5047327;28;20684;-69
2021/01/20 00:13:15;;;;;;;2.33;1.70;;;;;;;;;;5033207;28;20029;-69
2021/01/20 00:15:41;;;;;;;3.80;1.30;;;;;;;;;;5043637;28;20033;-69
2021/01/20 00:18:07;;;;;;;2.00;1.27;;;;;;;;;;5034256;28;20028;-68
2021/01/20 00:20:32;;;;;;;5.03;1.35;;;;;;;;;;5034338;28;20389;-69
2021/01/20 00:22:57;;;;;;;2.30;1.30;;;;;;;;;;5017903;28;20071;-70
2021/01/20 00:25:22;;;;;;;2.85;0.98;;;;;;;;;;5038859;28;20840;-69
2021/01/20 00:27:48;;;;;;;4.90;1.30;;;;;;;;;;5038760;28;20030;-69
2021/01/20 00:30:14;;;;;;;2.13;1.00;;;;;;;;;;5036838;28;20037;-69
2021/01/20 00:32:39;;;;;;;2.17;1.02;;;;;;;;;;5053412;28;20017;-69
2021/01/20 00:35:08;;;;;;;3.65;1.20;;;;;;;;;;5047420;28;20052;-69
2021/01/20 00:37:33;;;;;;;2.20;1.05;;;;;;;;;;5027044;28;20069;-69
2021/01/20 00:39:58;;;;;;;5.80;1.00;;;;;;;;;;5044531;28;20477;-69
2021/01/20 00:42:24;;;;;;;5.18;1.60;;;;;;;;;;5044032;28;20049;-69
2021/01/20 00:44:49;;;;;;;1.73;0.77;;;;;;;;;;5049986;28;20095;-69
2021/01/20 00:47:14;;;;;;;0.82;0.50;;;;;;;;;;5054203;28;20527;-69
2021/01/20 00:49:39;;;;;;;2.35;0.60;;;;;;;;;;5053967;28;20035;-69
2021/01/20 00:52:05;;;;;;;0.73;0.50;;;;;;;;;;5054297;28;20036;-69
2021/01/20 00:54:30;;;;;;;3.33;0.93;;;;;;;;;;5054218;28;20059;-70
2021/01/20 00:56:55;;;;;;;2.40;0.70;;;;;;;;;;5054284;28;20024;-69
2021/01/20 00:59:20;;;;;;;2.25;0.70;;;;;;;;;;5054101;28;20040;-69
2021/01/20 01:01:46;;;;;;;4.63;1.50;;;;;;;;;;5054275;28;20526;-69
2021/01/20 01:04:11;;;;;;;1.02;0.50;;;;;;;;;;5054052;28;20023;-69
2021/01/20 01:06:38;;;;;;;1.02;0.40;;;;;;;;;;5054115;28;20028;-69
2021/01/20 01:09:04;;;;;;;1.85;0.70;;;;;;;;;;5053914;28;20123;-69
2021/01/20 01:11:31;;;;;;;2.60;0.40;;;;;;;;;;5053547;28;20072;-69
2021/01/20 01:13:56;;;;;;;0.98;0.40;;;;;;;;;;5053902;28;20082;-69
2021/01/20 01:16:21;;;;;;;0.45;0.30;;;;;;;;;;5054172;28;20096;-69
2021/01/20 01:18:46;;;;;;;1.27;0.45;;;;;;;;;;5053472;28;20024;-69
2021/01/20 01:21:12;;;;;;;2.13;0.40;;;;;;;;;;5053865;28;20091;-69
2021/01/20 01:23:37;;;;;;;0.65;0.40;;;;;;;;;;5053699;28;20060;-69
2021/01/20 01:26:02;;;;;;;1.50;0.30;;;;;;;;;;5053508;28;20480;-69
2021/01/20 01:28:28;;;;;;;1.08;0.30;;;;;;;;;;5053322;28;20043;-69
2021/01/20 01:30:53;;;;;;;1.13;0.40;;;;;;;;;;5053529;28;20017;-69
2021/01/20 01:33:18;;;;;;;0.90;0.50;;;;;;;;;;5053363;28;20021;-69
2021/01/20 01:35:45;;;;;;;0.57;0.45;;;;;;;;;;5053677;28;20108;-69
2021/01/20 01:38:10;;;;;;;0.82;0.55;;;;;;;;;;5053532;28;20021;-69
2021/01/20 01:40:35;;;;;;;0.70;0.50;;;;;;;;;;5048621;28;20108;-69
2021/01/20 01:43:01;;;;;;;0.93;0.47;;;;;;;;;;5033498;28;20029;-69
2021/01/20 01:45:26;;;;;;;1.88;0.52;;;;;;;;;;5033349;28;20030;-69
2021/01/20 01:47:52;;;;;;;1.20;0.50;;;;;;;;;;5033388;28;20034;-69
2021/01/20 01:50:17;;;;;;;4.18;0.77;;;;;;;;;;5033549;28;20040;-69
2021/01/20 01:52:43;;;;;;;5.00;0.82;;;;;;;;;;5033120;28;20028;-69
2021/01/20 01:55:10;;;;;;;1.63;0.80;;;;;;;;;;5033274;28;20033;-69
2021/01/20 01:57:36;;;;;;;2.33;0.93;;;;;;;;;;5033356;28;20025;-69
2021/01/20 02:00:02;;;;;;;3.15;0.80;;;;;;;;;;5033127;28;20076;-69
2021/01/20 02:02:30;;;;;;;3.08;0.77;;;;;;;;;;5033477;28;20101;-69
2021/01/20 02:04:55;;;;;;;2.72;1.10;;;;;;;;;;5032967;28;20540;-69
2021/01/20 02:07:21;;;;;;;3.58;1.33;;;;;;;;;;5033022;28;20030;-69
2021/01/20 02:09:46;;;;;;;6.80;1.20;;;;;;;;;;5032688;28;20430;-69
2021/01/20 02:12:14;;;;;;;3.78;1.10;;;;;;;;;;5033030;28;20041;-69
2021/01/20 02:15:01;;;;;;;3.28;1.40;;;;;;;;;;5032835;28;20017;-69
2021/01/20 02:17:33;;;;;;;4.38;1.38;;;;;;;;;;5032946;28;20091;-69
2021/01/20 02:20:01;;;;;;;3.97;1.25;;;;;;;;;;5032896;28;20047;-69
2021/01/20 02:22:35;;;;;;;6.30;1.40;;;;;;;;;;5033108;28;20091;-69
2021/01/20 02:25:03;;;;;;;7.03;1.23;;;;;;;;;;5032722;28;20037;-69
2021/01/20 02:27:35;;;;;;;4.15;1.25;;;;;;;;;;5032725;28;20033;-69
2021/01/20 02:30:05;;;;;;;5.60;1.35;;;;;;;;;;5032640;28;20040;-69
2021/01/20 02:32:31;;;;;;;3.60;0.90;;;;;;;;;;5032752;28;20042;-69
2021/01/20 02:34:57;;;;;;;5.97;1.00;;;;;;;;;;5031927;28;20536;-69
2021/01/20 02:37:23;;;;;;;8.13;1.30;;;;;;;;;;5032614;28;20079;-69
2021/01/20 02:39:48;;;;;;;3.05;0.70;;;;;;;;;;5032647;28;20029;-69
2021/01/20 02:42:13;;;;;;;6.05;1.10;;;;;;;;;;5032233;28;20033;-69
2021/01/20 02:44:39;;;;;;;3.72;0.93;;;;;;;;;;5032497;28;20025;-69
2021/01/20 02:47:05;;;;;;;4.53;1.00;;;;;;;;;;5032381;28;20026;-69
2021/01/20 02:49:31;;;;;;;2.42;1.15;;;;;;;;;;5032567;28;20120;-69
2021/01/20 02:52:15;;;;;;;1.83;0.70;;;;;;;;;;5032548;28;20457;-69
2021/01/20 02:54:41;;;;;;;1.95;0.93;;;;;;;;;;5032484;28;20151;-69
2021/01/20 02:57:06;;;;;;;2.80;1.00;;;;;;;;;;5032573;28;20034;-69
2021/01/20 02:59:32;;;;;;;7.18;1.52;;;;;;;;;;5032312;28;20026;-69
2021/01/20 03:02:00;;;;;;;3.65;1.02;;;;;;;;;;5032357;28;20038;-69
2021/01/20 03:04:26;;;;;;;3.00;0.82;;;;;;;;;;5032332;28;20120;-69
2021/01/20 03:06:53;;;;;;;6.20;1.23;;;;;;;;;;5032075;28;20385;-69
2021/01/20 03:09:18;;;;;;;2.95;0.95;;;;;;;;;;5034544;28;20045;-68
2021/01/20 03:11:48;;;;;;;1.70;1.08;;;;;;;;;;5036380;28;20038;-69
2021/01/20 03:14:14;;;;;;;6.00;1.73;;;;;;;;;;5035018;28;20365;-69
2021/01/20 03:16:40;;;;;;;2.13;1.05;;;;;;;;;;5036283;28;20041;-69
2021/01/20 03:19:05;;;;;;;4.93;1.27;;;;;;;;;;5036249;28;20033;-69
2021/01/20 03:21:31;;;;;;;1.80;0.88;;;;;;;;;;5036121;28;20060;-69
2021/01/20 03:23:56;;;;;;;4.32;1.20;;;;;;;;;;5036095;28;20033;-70
2021/01/20 03:26:21;;;;;;;7.38;1.50;;;;;;;;;;5036043;28;20133;-70
2021/01/20 03:28:46;;;;;;;4.13;1.20;;;;;;;;;;5035800;28;20029;-70
2021/01/20 03:31:12;;;;;;;2.40;1.20;;;;;;;;;;5036135;28;20025;-70
2021/01/20 03:33:37;;;;;;;2.40;1.20;;;;;;;;;;5035920;28;20029;-70
2021/01/20 03:36:02;;;;;;;3.28;0.95;;;;;;;;;;5035570;28;20028;-70
2021/01/20 03:38:28;;;;;;;2.60;0.80;;;;;;;;;;5035928;28;20029;-70
2021/01/20 03:40:53;;;;;;;3.60;0.55;;;;;;;;;;5035312;28;20033;-70
2021/01/20 03:43:18;;;;;;;2.83;0.65;;;;;;;;;;5035485;28;20056;-68
2021/01/20 03:45:43;;;;;;;1.58;0.80;;;;;;;;;;5035285;28;20026;-68
2021/01/20 03:48:09;;;;;;;0.93;0.43;;;;;;;;;;5035711;28;20042;-68
2021/01/20 03:50:34;;;;;;;1.45;0.60;;;;;;;;;;5035509;28;20022;-68
2021/01/20 03:52:59;;;;;;;0.88;0.40;;;;;;;;;;5035599;28;20073;-68
2021/01/20 03:55:25;;;;;;;1.48;0.57;;;;;;;;;;5035144;28;20120;-69
2021/01/20 03:57:50;;;;;;;2.00;0.50;;;;;;;;;;5035736;28;20026;-68
2021/01/20 04:00:16;;;;;;;2.33;0.40;;;;;;;;;;5035193;28;20033;-68
2021/01/20 04:02:41;;;;;;;0.63;0.35;;;;;;;;;;5035076;28;20051;-68
2021/01/20 04:05:07;;;;;;;0.17;0.17;;;;;;;;;;5035345;28;20104;-68
2021/01/20 04:07:33;;;;;;;0.20;0.20;;;;;;;;;;5035231;28;20032;-68
2021/01/20 04:09:58;;;;;;;0.50;0.50;;;;;;;;;;5034689;28;20049;-69
2021/01/20 04:12:24;;;;;;;0.57;0.55;;;;;;;;;;5035173;28;20017;-68
2021/01/20 04:14:49;;;;;;;1.98;0.70;;;;;;;;;;5035302;28;20040;-68
2021/01/20 04:17:14;;;;;;;1.52;0.77;;;;;;;;;;5035365;28;20029;-68
2021/01/20 04:19:40;;;;;;;1.95;0.90;;;;;;;;;;5033809;28;20079;-68
2021/01/20 04:22:05;;;;;;;2.97;0.80;;;;;;;;;;5034828;28;20390;-68
2021/01/20 04:24:30;;;;;;;0.98;0.80;;;;;;;;;;5034973;28;20103;-70
2021/01/20 04:26:55;;;;;;;2.53;1.30;;;;;;;;;;5034487;28;20092;-70
2021/01/20 04:29:21;;;;;;;4.82;1.17;;;;;;;;;;5034793;28;20037;-70
2021/01/20 04:31:46;;;;;;;1.27;0.60;;;;;;;;;;5034893;28;20037;-70
2021/01/20 04:34:11;;;;;;;1.42;0.90;;;;;;;;;;5034781;28;20027;-70
2021/01/20 04:36:37;;;;;;;2.30;1.05;;;;;;;;;;5034808;28;20381;-70
2021/01/20 04:39:02;;;;;;;1.52;0.95;;;;;;;;;;5034576;28;20033;-70
2021/01/20 04:41:28;;;;;;;1.35;0.70;;;;;;;;;;5034535;28;20585;-70
2021/01/20 04:43:53;;;;;;;1.73;1.00;;;;;;;;;;5034553;28;20033;-70
2021/01/20 04:46:19;;;;;;;2.67;1.00;;;;;;;;;;5034440;28;20462;-68
2021/01/20 04:48:47;;;;;;;2.22;0.80;;;;;;;;;;5034715;28;20044;-68
2021/01/20 04:51:12;;;;;;;3.25;1.10;;;;;;;;;;5034498;28;20091;-69
2021/01/20 04:53:38;;;;;;;3.08;0.82;;;;;;;;;;5034525;28;20465;-68
2021/01/20 04:56:10;;;;;;;5.20;1.00;;;;;;;;;;5034281;28;20052;-68
2021/01/20 04:58:35;;;;;;;2.70;0.75;;;;;;;;;;5034143;28;20478;-68
2021/01/20 05:01:01;;;;;;;2.58;0.65;;;;;;;;;;5034294;28;20061;-68
2021/01/20 05:03:27;;;;;;;3.70;0.60;;;;;;;;;;5034198;28;20416;-68
2021/01/20 05:05:55;;;;;;;4.82;0.98;;;;;;;;;;5034419;28;20034;-68
2021/01/20 05:08:21;;;;;;;2.80;0.60;;;;;;;;;;5034129;28;20448;-68
2021/01/20 05:10:47;;;;;;;3.45;0.93;;;;;;;;;;5034105;28;20049;-68
2021/01/20 05:13:25;;;;;;;2.47;0.60;;;;;;;;;;5034195;28;20040;-68
2021/01/20 05:15:51;;;;;;;3.72;0.65;;;;;;;;;;5033944;28;20069;-69
2021/01/20 05:18:16;;;;;;;4.97;0.70;;;;;;;;;;5034101;28;20427;-68
2021/01/20 05:20:41;;;;;;;2.38;0.60;;;;;;;;;;5033780;28;20042;-69
2021/01/20 05:23:08;;;;;;;3.85;0.60;;;;;;;;;;5033920;28;20022;-68
2021/01/20 05:25:35;;;;;;;4.63;0.52;;;;;;;;;;5033725;28;20425;-68
2021/01/20 05:28:19;;;;;;;3.65;0.70;;;;;;;;;;5033654;28;20045;-69
2021/01/20 05:30:45;;;;;;;2.72;0.70;;;;;;;;;;5033241;28;20121;-68
2021/01/20 05:33:10;;;;;;;7.88;0.93;;;;;;;;;;5033453;28;20533;-68
2021/01/20 05:35:35;;;;;;;7.97;0.88;;;;;;;;;;5033508;28;20022;-68
2021/01/20 05:38:01;;;;;;;6.90;0.93;;;;;;;;;;5033584;28;20057;-68
2021/01/20 05:40:26;;;;;;;5.70;1.10;;;;;;;;;;5033483;28;20512;-68
2021/01/20 05:42:52;;;;;;;7.38;1.10;;;;;;;;;;5033500;28;20028;-68
2021/01/20 05:45:18;;;;;;;5.78;0.77;;;;;;;;;;5033124;28;20516;-68
2021/01/20 05:48:02;;;;;;;5.35;0.70;;;;;;;;;;5033276;28;20103;-69
2021/01/20 05:50:28;;;;;;;5.30;1.00;;;;;;;;;;5033189;28;20048;-68
2021/01/20 05:53:02;;;;;;;5.90;0.90;;;;;;;;;;5033293;28;20476;-68
2021/01/20 05:55:28;;;;;;;3.80;0.60;;;;;;;;;;5033145;28;20033;-68
2021/01/20 05:57:53;;;;;;;4.20;1.00;;;;;;;;;;5032936;28;20401;-69
2021/01/20 06:00:18;;;;;;;6.20;1.10;;;;;;;;;;5033208;28;20079;-68
2021/01/20 06:02:44;;;;;;;5.80;0.90;;;;;;;;;;5032644;28;20060;-68
2021/01/20 06:05:10;;;;;;;2.67;0.80;;;;;;;;;;5032318;28;20140;-68
2021/01/20 06:07:37;;;;;;;5.35;0.88;;;;;;;;;;5032175;28;20535;-68
2021/01/20 06:10:03;;;;;;;2.70;0.68;;;;;;;;;;5032425;28;20404;-69
2021/01/20 06:12:28;;;;;;;9.70;1.40;;;;;;;;;;5033058;28;20037;-68
2021/01/20 06:14:53;;;;;;;3.95;1.08;;;;;;;;;;5032848;28;20033;-68
2021/01/20 06:17:18;;;;;;;6.63;2.05;;;;;;;;;;5033086;28;20026;-68
2021/01/20 06:19:48;;;;;;;3.35;0.88;;;;;;;;;;5032679;28;20444;-68
2021/01/20 06:22:17;;;;;;;6.63;1.30;;;;;;;;;;5033026;28;20071;-68
2021/01/20 06:24:49;;;;;;;3.72;1.10;;;;;;;;;;5032578;28;20044;-68
2021/01/20 06:27:14;;;;;;;7.30;1.20;;;;;;;;;;5032903;28;20417;-68
2021/01/20 06:29:44;;;;;;;3.13;1.02;;;;;;;;;;5032586;28;20040;-68
2021/01/20 06:32:10;;;;;;;5.07;1.38;;;;;;;;;;5032881;28;20034;-68
2021/01/20 06:34:35;;;;;;;6.55;1.35;;;;;;;;;;5032253;28;20041;-68
2021/01/20 06:37:00;;;;;;;4.22;1.67;;;;;;;;;;5032827;28;20036;-68
2021/01/20 06:39:26;;;;;;;2.70;1.02;;;;;;;;;;5032687;28;20035;-68
2021/01/20 06:41:51;;;;;;;3.55;1.38;;;;;;;;;;5032533;28;20120;-68
2021/01/20 06:44:16;;;;;;;4.85;1.25;;;;;;;;;;5032213;28;20484;-68
2021/01/20 06:47:10;;;;;;;5.93;1.20;;;;;;;;;;5032604;28;20064;-68
2021/01/20 06:49:36;;;;;;;7.78;1.38;;;;;;;;;;5027145;28;20049;-68
2021/01/20 06:52:14;;;;;;;4.97;1.20;;;;;;;;;;5032301;28;20100;-68
2021/01/20 06:54:40;;;;;;;5.45;1.20;;;;;;;;;;5032698;28;20034;-68
2021/01/20 06:57:27;;;;;;;10.05;1.60;;;;;;;;;;5032590;28;20041;-68
2021/01/20 07:00:07;;;;;;;14.18;2.05;;;;;;;;;;5032328;28;20021;-68
2021/01/20 07:02:36;;;;;;;7.43;1.85;;;;;;;;;;5032469;28;20030;-68
2021/01/20 07:05:03;;;;;;;6.70;1.90;;;;;;;;;;5031078;28;20120;-68
2021/01/20 07:07:47;;;;;;;9.60;1.85;;;;;;;;;;5032452;28;20025;-68
2021/01/20 07:10:13;;;;;;;7.30;2.08;;;;;;;;;;5031937;28;20049;-69
2021/01/20 07:12:38;;;;;;;4.90;1.80;;;;;;;;;;5032334;28;20091;-68
2021/01/20 07:15:04;;;;;;;4.63;1.85;;;;;;;;;;5032236;28;20027;-68
2021/01/20 07:17:32;;;;;;;6.68;2.15;;;;;;;;;;5032460;28;20037;-68
2021/01/20 07:19:58;;;;;;;5.80;2.40;;;;;;;;;;5032160;28;20026;-69
2021/01/20 07:22:23;;;;;;;7.80;2.45;;;;;;;;;;5032112;28;20374;-68
2021/01/20 07:24:48;;;;;;;8.90;2.65;;;;;;;;;;5032030;28;20053;-68
2021/01/20 07:27:14;;;;;;;8.57;2.83;;;;;;;;;;5032012;28;20459;-69
2021/01/20 07:29:39;;;;;;;11.23;2.97;;;;;;;;;;5031951;28;20030;-68
2021/01/20 07:32:05;;;;;;;10.77;3.42;;;;;;;;;;5031922;28;20425;-68
2021/01/20 07:34:41;;;;;;;12.43;3.33;;;;;;;;;;5031832;28;20042;-69
2021/01/20 07:37:10;;;;;;;10.57;3.10;;;;;;;;;;5032134;28;20045;-68
2021/01/20 07:39:35;;;;;;;9.73;3.03;;;;;;;;;;5031793;28;20060;-68
2021/01/20 07:42:01;;;;;;;10.05;2.80;;;;;;;;;;5031997;28;20102;-68
2021/01/20 07:44:27;;;;;;;6.10;2.72;;;;;;;;;;5032050;28;20087;-68
2021/01/20 07:46:58;;;;;;;8.95;2.75;;;;;;;;;;5031953;28;20045;-68
2021/01/20 07:49:23;;;;;;;9.93;3.75;;;;;;;;;;5031928;28;20041;-69
2021/01/20 07:52:01;;;;;;;6.93;2.58;;;;;;;;;;5031881;28;20029;-68
2021/01/20 07:54:33;;;;;;;9.68;2.50;;;;;;;;;;5032931;28;20430;-68
2021/01/20 07:56:59;;;;;;;5.32;2.40;;;;;;;;;;5035558;28;20033;-68
2021/01/20 07:59:24;;;;;;;6.28;2.20;;;;;;;;;;5035416;28;20033;-68
2021/01/20 08:01:49;;;;;;;7.03;2.47;;;;;;;;;;5035358;28;20021;-69
2021/01/20 08:04:19;;;;;;;7.28;2.03;;;;;;;;;;5035297;28;20022;-68
2021/01/20 08:06:44;;;;;;;6.18;2.00;;;;;;;;;;5035217;28;20037;-68
2021/01/20 08:09:09;;;;;;;6.55;1.85;;;;;;;;;;5035202;28;20043;-68
2021/01/20 08:11:35;;;;;;;4.15;1.67;;;;;;;;;;5034823;28;20045;-68
2021/01/20 08:14:01;;;;;;;3.30;1.70;;;;;;;;;;5035190;28;20041;-68
2021/01/20 08:16:27;;;;;;;7.68;2.05;;;;;;;;;;5035123;28;20017;-69
2021/01/20 08:18:53;;;;;;;6.18;1.83;;;;;;;;;;5035299;28;20059;-68
2021/01/20 08:21:18;;;;;;;5.10;2.00;;;;;;;;;;5035028;28;20040;-68
2021/01/20 08:24:10;;;;;;;6.90;2.10;;;;;;;;;;5035053;28;20052;-68
2021/01/20 08:26:35;;;;;;;8.07;3.15;;;;;;;;;;5033762;28;20072;-68
2021/01/20 08:29:08;;;;;;;5.10;2.95;;;;;;;;;;5034872;28;20041;-69
2021/01/20 08:31:34;;;;;;;7.38;2.30;;;;;;;;;;5034920;28;20097;-70
2021/01/20 08:34:19;;;;;;;9.05;1.88;;;;;;;;;;5033557;28;20120;-70
2021/01/20 08:36:58;;;;;;;4.90;2.20;;;;;;;;;;5034801;28;20060;-70
2021/01/20 08:39:24;;;;;;;11.90;2.50;;;;;;;;;;5034754;28;20083;-70
2021/01/20 08:42:08;;;;;;;10.40;2.22;;;;;;;;;;5033997;28;20474;-70
2021/01/20 08:44:33;;;;;;;4.93;2.17;;;;;;;;;;5034508;28;20117;-68
2021/01/20 08:46:59;;;;;;;4.55;2.63;;;;;;;;;;5034553;28;20125;-68
2021/01/20 08:49:24;;;;;;;4.05;2.00;;;;;;;;;;5034463;28;20212;-68
2021/01/20 08:51:59;;;;;;;5.93;2.15;;;;;;;;;;5034467;28;20124;-69
2021/01/20 08:54:24;;;;;;;5.50;2.50;;;;;;;;;;5034232;28;20533;-68
2021/01/20 08:56:50;;;;;;;7.15;2.75;;;;;;;;;;5034285;28;20029;-68
2021/01/20 08:59:15;;;;;;;7.75;2.95;;;;;;;;;;5034058;28;20488;-68
2021/01/20 09:01:40;;;;;;;11.20;4.18;;;;;;;;;;5034146;28;20031;-68
2021/01/20 09:04:06;;;;;;;5.68;3.20;;;;;;;;;;5034255;28;20029;-68
2021/01/20 09:06:32;;;;;;;6.10;3.38;;;;;;;;;;5033669;28;20121;-68
2021/01/20 09:08:57;;;;;;;10.13;3.15;;;;;;;;;;5033941;28;20425;-68
2021/01/20 09:11:23;;;;;;;10.23;3.20;;;;;;;;;;5019308;28;20136;-70
2021/01/20 09:13:50;;;;;;;8.75;3.05;;;;;;;;;;5032663;28;20095;-70
2021/01/20 09:16:15;;;;;;;10.88;2.75;;;;;;;;;;5033353;28;20021;-70
2021/01/20 09:18:41;;;;;;;11.98;3.15;;;;;;;;;;5032219;28;20029;-70
2021/01/20 09:21:07;;;;;;;10.27;3.03;;;;;;;;;;5033036;28;20074;-70
2021/01/20 09:23:32;;;;;;;8.93;2.90;;;;;;;;;;5032338;28;20029;-70
2021/01/20 09:25:58;;;;;;;7.00;2.80;;;;;;;;;;5032608;28;20029;-70
2021/01/20 09:28:23;;;;;;;6.40;2.63;;;;;;;;;;5032490;28;20441;-70
2021/01/20 09:30:49;;;;;;;11.32;3.20;;;;;;;;;;5032857;28;20025;-70
2021/01/20 09:33:14;;;;;;;10.45;2.83;;;;;;;;;;5031916;28;20030;-70
2021/01/20 09:35:40;;;;;;;6.47;2.90;;;;;;;;;;5032888;28;20098;-70
2021/01/20 09:38:06;;;;;;;9.43;2.92;;;;;;;;;;5032168;28;20084;-70
2021/01/20 09:40:31;;;;;;;7.50;2.78;;;;;;;;;;5031947;28;20049;-70
2021/01/20 09:42:57;;;;;;;10.88;4.32;;;;;;;;;;5032786;28;20040;-70
2021/01/20 09:45:27;;;;;;;10.18;3.95;;;;;;;;;;5032903;28;20025;-70
2021/01/20 09:47:53;;;;;;;9.32;3.78;;;;;;;;;;5032976;28;20117;-69
2021/01/20 09:50:18;;;;;;;8.93;4.10;;;;;;;;;;5033091;28;20117;-70
2021/01/20 09:52:44;;;;;;;11.00;4.78;;;;;;;;;;5033276;28;20018;-68
2021/01/20 09:55:10;;;;;;;12.32;4.47;;;;;;;;;;5033092;28;20136;-68
2021/01/20 09:57:35;;;;;;;9.30;4.03;;;;;;;;;;5033100;28;20120;-68
2021/01/20 10:00:02;;;;;;;13.70;4.72;;;;;;;;;;5022543;28;20369;-70
2021/01/20 10:02:27;;;;;;;10.20;4.07;;;;;;;;;;5031558;28;20033;-69
2021/01/20 10:04:52;;;;;;;11.02;4.70;;;;;;;;;;5030746;28;20528;-70
2021/01/20 10:07:18;;;;;;;11.80;4.78;;;;;;;;;;5031317;28;20022;-70
2021/01/20 10:09:43;;;;;;;10.80;4.28;;;;;;;;;;5021495;28;20068;-70
2021/01/20 10:12:10;;;;;;;9.50;4.32;;;;;;;;;;5034827;28;20041;-70
2021/01/20 10:14:35;;;;;;;16.10;5.18;;;;;;;;;;5026796;28;20068;-69
2021/01/20 10:17:01;;;;;;;15.77;5.07;;;;;;;;;;5045875;28;20048;-70
2021/01/20 10:19:26;;;;;;;12.45;5.13;;;;;;;;;;5040823;28;20037;-69
2021/01/20 10:21:51;;;;;;;13.40;5.25;;;;;;;;;;5044587;28;20067;-70
2021/01/20 10:24:17;;;;;;;17.27;5.40;;;;;;;;;;5035308;28;20132;-70
2021/01/20 10:26:42;;;;;;;12.43;5.50;;;;;;;;;;5028705;28;20040;-70
2021/01/20 10:29:08;;;;;;;11.38;5.28;;;;;;;;;;5028870;28;20371;-69
2021/01/20 10:31:34;;;;;;;15.45;5.60;;;;;;;;;;5034970;28;20048;-70
2021/01/20 10:34:00;;;;;;;12.20;5.15;;;;;;;;;;5034962;28;20091;-70
2021/01/20 10:36:26;;;;;;;13.10;5.28;;;;;;;;;;5042971;28;20029;-70
2021/01/20 10:38:51;;;;;;;9.15;4.35;;;;;;;;;;5029557;28;20034;-70
2021/01/20 10:41:20;;;;;;;6.97;3.58;;;;;;;;;;5042689;28;20185;-70
2021/01/20 10:43:46;;;;;;;11.43;3.70;;;;;;;;;;5036676;28;20450;-69
2021/01/20 10:46:12;;;;;;;10.55;3.95;;;;;;;;;;5026369;28;20048;-70
2021/01/20 10:48:37;;;;;;;6.20;3.13;;;;;;;;;;5027940;28;20053;-70
2021/01/20 10:51:02;;;;;;;9.60;3.33;;;;;;;;;;5041925;28;20025;-70
2021/01/20 10:53:28;;;;;;;6.47;3.05;;;;;;;;;;5028832;28;20814;-69
2021/01/20 10:55:53;;;;;;;7.85;4.13;;;;;;;;;;5026555;28;20075;-70
2021/01/20 10:58:18;;;;;;;8.55;4.05;;;;;;;;;;5041138;28;20476;-70
2021/01/20 11:00:47;;;;;;;9.50;4.57;;;;;;;;;;5029173;28;20065;-70
2021/01/20 11:03:12;;;;;;;8.05;3.17;;;;;;;;;;5039516;28;20375;-70
2021/01/20 11:05:38;;;;;;;10.30;3.00;;;;;;;;;;5035658;28;20143;-70
2021/01/20 11:08:04;;;;;;;7.75;3.30;;;;;;;;;;5046349;28;20056;-69
2021/01/20 11:10:29;;;;;;;16.85;3.20;;;;;;;;;;5046878;28;20049;-70
2021/01/20 11:12:54;;;;;;;9.73;3.55;;;;;;;;;;5039909;28;20795;-70
2021/01/20 11:15:19;;;;;;;12.52;3.10;;;;;;;;;;5031535;28;20030;-70
2021/01/20 11:17:45;;;;;;;5.97;2.60;;;;;;;;;;5030413;28;20123;-70
2021/01/20 11:20:10;;;;;;;5.75;2.20;;;;;;;;;;5031071;28;20370;-70
2021/01/20 11:22:35;;;;;;;7.85;2.60;;;;;;;;;;5031040;28;20355;-70
2021/01/20 11:25:01;;;;;;;7.82;1.92;;;;;;;;;;5030921;28;20048;-70
2021/01/20 11:27:29;;;;;;;5.93;2.70;;;;;;;;;;5030455;28;20104;-70
2021/01/20 11:29:54;;;;;;;35.65;16.00;;;;;;;;;;5031338;28;20379;-70
2021/01/20 11:32:20;;;;;;;31.98;16.52;;;;;;;;;;5034709;28;20041;-70
2021/01/20 11:34:45;;;;;;;9.93;3.63;;;;;;;;;;5035156;28;20028;-70
2021/01/20 11:37:10;;;;;;;12.43;2.88;;;;;;;;;;5035308;28;20026;-70
2021/01/20 11:39:36;;;;;;;8.60;2.65;;;;;;;;;;5035060;28;20033;-70
2021/01/20 11:42:01;;;;;;;8.73;3.70;;;;;;;;;;5034347;28;20028;-70
2021/01/20 11:44:27;;;;;;;10.50;2.10;;;;;;;;;;5033685;28;20529;-70
2021/01/20 11:46:52;;;;;;;13.63;3.75;;;;;;;;;;5034116;28;20429;-69
2021/01/20 11:49:17;;;;;;;7.50;2.80;;;;;;;;;;5033626;28;20037;-70
2021/01/20 11:51:43;;;;;;;5.95;1.98;;;;;;;;;;5034676;28;20053;-70
2021/01/20 11:54:08;;;;;;;4.40;1.65;;;;;;;;;;5034698;28;20037;-70
2021/01/20 11:56:33;;;;;;;4.30;1.67;;;;;;;;;;5022358;28;20013;-70
2021/01/20 11:58:59;;;;;;;3.92;1.48;;;;;;;;;;5026709;28;20113;-70
2021/01/20 12:01:24;;;;;;;5.20;1.73;;;;;;;;;;5033484;28;20041;-70
2021/01/20 12:03:50;;;;;;;4.97;2.17;;;;;;;;;;5030709;28;20029;-70
2021/01/20 12:06:15;;;;;;;6.28;2.08;;;;;;;;;;5028171;28;20025;-69
2021/01/20 12:08:41;;;;;;;6.82;1.92;;;;;;;;;;5038921;28;20488;-70
2021/01/20 12:11:06;;;;;;;6.28;1.90;;;;;;;;;;5036143;28;21317;-70
2021/01/20 12:13:31;;;;;;;3.53;1.48;;;;;;;;;;5030995;28;20037;-69
2021/01/20 12:15:56;;;;;;;5.97;1.70;;;;;;;;;;5037559;28;20087;-69
2021/01/20 12:18:22;;;;;;;2.30;1.25;;;;;;;;;;5044212;28;20033;-70
2021/01/20 12:20:47;;;;;;;4.43;1.30;;;;;;;;;;5040815;28;20037;-70
2021/01/20 12:23:12;;;;;;;3.85;1.33;;;;;;;;;;5034332;28;20053;-70
2021/01/20 12:25:38;;;;;;;4.45;2.47;;;;;;;;;;5030539;28;20029;-70
2021/01/20 12:28:03;;;;;;;5.30;2.20;;;;;;;;;;5035225;28;20511;-70
2021/01/20 12:30:28;;;;;;;6.88;2.33;;;;;;;;;;5037953;28;20032;-70
2021/01/20 12:32:54;;;;;;;5.93;1.75;;;;;;;;;;5040192;28;20124;-70
2021/01/20 12:35:19;;;;;;;5.80;1.83;;;;;;;;;;5044142;28;20082;-70
2021/01/20 12:37:44;;;;;;;10.43;3.42;;;;;;;;;;5033348;28;20033;-70
2021/01/20 12:40:10;;;;;;;4.80;1.98;;;;;;;;;;5045856;28;20028;-70
2021/01/20 12:42:35;;;;;;;6.22;1.73;;;;;;;;;;5037621;28;20036;-70
2021/01/20 12:45:00;;;;;;;8.65;2.25;;;;;;;;;;5035712;28;20094;-70
2021/01/20 12:47:26;;;;;;;6.72;1.90;;;;;;;;;;5045346;28;20021;-70
2021/01/20 12:49:51;;;;;;;11.23;2.40;;;;;;;;;;5033028;28;20048;-69
2021/01/20 12:52:16;;;;;;;9.00;2.03;;;;;;;;;;5041508;28;20025;-70
2021/01/20 12:54:42;;;;;;;13.35;2.80;;;;;;;;;;5040882;28;20036;-70
2021/01/20 12:57:07;;;;;;;5.05;1.98;;;;;;;;;;5031693;28;20190;-70
2021/01/20 12:59:32;;;;;;;8.93;2.17;;;;;;;;;;5029844;28;20041;-70
2021/01/20 13:01:57;;;;;;;9.10;2.20;;;;;;;;;;5028421;28;20021;-70
2021/01/20 13:04:23;;;;;;;11.32;2.42;;;;;;;;;;5036632;28;20480;-70
2021/01/20 13:06:49;;;;;;;7.93;2.35;;;;;;;;;;5036640;28;20044;-70
2021/01/20 13:09:14;;;;;;;6.85;2.45;;;;;;;;;;5042194;28;20033;-70
2021/01/20 13:11:40;;;;;;;9.45;2.50;;;;;;;;;;5033307;28;20164;-70
2021/01/20 13:14:05;;;;;;;8.65;2.13;;;;;;;;;;5040232;28;20398;-70
2021/01/20 13:16:32;;;;;;;7.43;2.28;;;;;;;;;;5029326;28;20067;-70
2021/01/20 13:18:57;;;;;;;10.07;2.10;;;;;;;;;;5039189;28;20028;-70
2021/01/20 13:21:23;;;;;;;9.63;2.53;;;;;;;;;;5035030;28;20044;-70
2021/01/20 13:23:48;;;;;;;14.10;2.47;;;;;;;;;;5028699;28;20025;-70
2021/01/20 13:26:15;;;;;;;9.77;2.47;;;;;;;;;;5044416;28;20600;-70
2021/01/20 13:28:40;;;;;;;10.80;2.72;;;;;;;;;;5029139;28;20041;-70
2021/01/20 13:31:05;;;;;;;9.07;2.38;;;;;;;;;;5033767;28;20127;-70
2021/01/20 13:33:31;;;;;;;16.98;3.05;;;;;;;;;;5033417;28;20175;-70
2021/01/20 13:35:56;;;;;;;18.52;4.40;;;;;;;;;;5033546;28;20462;-70
2021/01/20 13:38:21;;;;;;;11.85;4.30;;;;;;;;;;5033566;28;20378;-70
2021/01/20 13:40:46;;;;;;;13.05;4.05;;;;;;;;;;5033064;28;20025;-70
2021/01/20 13:43:12;;;;;;;15.35;5.45;;;;;;;;;;5032901;28;20038;-68
2021/01/20 13:45:37;;;;;;;15.13;5.30;;;;;;;;;;5032223;28;20096;-68
2021/01/20 13:48:02;;;;;;;14.35;5.15;;;;;;;;;;5033288;28;20467;-68
2021/01/20 13:50:28;;;;;;;22.23;7.00;;;;;;;;;;5033386;28;20528;-68
2021/01/20 13:52:53;;;;;;;16.05;6.60;;;;;;;;;;5033030;28;20022;-68
2021/01/20 13:55:18;;;;;;;16.50;6.55;;;;;;;;;;5031698;28;20088;-68
2021/01/20 13:57:43;;;;;;;9.55;2.60;;;;;;;;;;5032728;28;20069;-68
2021/01/20 14:00:09;;;;;;;25.75;7.60;;;;;;;;;;5032715;28;20455;-68
2021/01/20 14:02:34;;;;;;;11.77;3.20;;;;;;;;;;5033384;28;20057;-68
2021/01/20 14:05:02;;;;;;;14.50;5.57;;;;;;;;;;5033103;28;20033;-68
2021/01/20 14:07:28;;;;;;;19.33;6.25;;;;;;;;;;5032881;28;20487;-68
2021/01/20 14:09:53;;;;;;;14.50;3.83;;;;;;;;;;5032567;28;20049;-68
2021/01/20 14:12:18;;;;;;;15.27;4.90;;;;;;;;;;5033033;28;20033;-68
2021/01/20 14:14:44;;;;;;;13.95;4.63;;;;;;;;;;5032758;28;20336;-68
2021/01/20 14:17:09;;;;;;;10.23;3.80;;;;;;;;;;5034488;28;20036;-69
2021/01/20 14:19:34;;;;;;;13.43;2.47;;;;;;;;;;5046369;28;20047;-69
2021/01/20 14:21:59;;;;;;;11.65;2.20;;;;;;;;;;5041256;28;20017;-70
2021/01/20 14:24:25;;;;;;;13.93;2.72;;;;;;;;;;5033283;28;20063;-70
2021/01/20 14:26:54;;;;;;;8.60;2.50;;;;;;;;;;5029033;28;20056;-69
2021/01/20 14:29:19;;;;;;;4.78;2.05;;;;;;;;;;5027650;28;20394;-70
2021/01/20 14:31:45;;;;;;;9.27;2.35;;;;;;;;;;5043537;28;20047;-70
2021/01/20 14:34:10;;;;;;;8.13;2.08;;;;;;;;;;5029173;28;20037;-70
2021/01/20 14:36:36;;;;;;;7.95;1.90;;;;;;;;;;5034651;28;20036;-70